CheckWX is a tool to help pilots better visualize weather data.  It is not intended as a substitute for an official pre-flight weather briefing.

08:53:34 UTC

KRWI METAR
Rocky Mount-Wilson Regional Airport
Rocky Mount, North Carolina, USA
Current

1 hour ago

KRWI 220753Z AUTO 33012KT 4SM -RA BR BKN049 OVC060 11/09 A3021 RMK AO2 RAE07B23 SLP231 P0004 T01060089
Observed
Feb-22 @ 07:53 UTC
Wind
  • 330° at 12 KTS
Visibility
4 SM
Flight Rules
MVFR
Conditions
Light Rain, Mist
Cloud Levels
  • Broken at 4,900' AGL
  • Overcast at 6,000' AGL
Temperature
11°C / 52°F
Dewpoint
C / 48°F
Humidity
88%
Altimeter
30.21" Hg
Pressure
1023.1 hPa
Current Rain
0.04"
Previous

2 hours ago

KRWI 220653Z AUTO 33006KT 7SM -RA OVC055 13/12 A3019 RMK AO2 RAB0557 SLP221 P0001 T01280122
Observed
Feb-22 @ 06:53 UTC
Wind
  • 330° at 6 KTS
Visibility
7 SM
Flight Rules
VFR
Conditions
Light Rain
Cloud Levels
  • Overcast at 5,500' AGL
Temperature
13°C / 55°F
Dewpoint
12°C / 54°F
Humidity
94%
Altimeter
30.19" Hg
Pressure
1022.1 hPa
Current Rain
0.01"
Previous

3 hours ago

KRWI 220553Z AUTO 00000KT 4SM BR OVC055 12/11 A3019 RMK AO2 SLP223 T01170111 10122 20106 53007
Observed
Feb-22 @ 05:53 UTC
Visibility
4 SM
Flight Rules
MVFR
Conditions
Mist
Cloud Levels
  • Overcast at 5,500' AGL
Temperature
12°C / 54°F
Dewpoint
11°C / 52°F
Humidity
94%
Altimeter
30.19" Hg
Pressure
1022.3 hPa